Wagga Wagga, Australia
Current Conditions -  °F | °C
As of 9:00 PM on Sunday 21 Dec 2014 (Local Time) from YSWG Reporting Station
Clear Clear  
Wind Chill: 79°   Ceiling: Unl
Heat Index: 79°   Visibility: 6mi
Dew Point: 39°   Wind: 5mph
Humidity: 24%   Direction: 210°SSW
Pressure: 29.85"   Gusts: NA
Location:  35.11°S, 147.37°E
Report Text: YSWG 211000Z AUTO 21004KT 9999 // NCD 26/04 Q1011
Loading
Personal Weather Stations






























Interactive Weather Map New forecast layout! Learn more

10-Day Weather Forecast

Advertisements
Track Severe Weather on mobile